createdAt,value
2022-08-10T00:03:07.643Z,25.70
2022-08-10T00:08:10.743Z,25.60
2022-08-10T00:13:14.588Z,25.60
2022-08-10T00:18:34.508Z,25.60
2022-08-10T00:23:39.879Z,25.60
2022-08-10T00:28:42.929Z,25.60
2022-08-10T00:33:47.402Z,25.60
2022-08-10T00:38:50.436Z,25.60
2022-08-10T00:43:53.501Z,25.60
2022-08-10T00:49:00.652Z,25.50
2022-08-10T00:54:03.913Z,25.50
2022-08-10T00:59:06.974Z,25.50
2022-08-10T01:04:39.997Z,25.50
2022-08-10T01:09:44.532Z,25.50
2022-08-10T01:15:06.215Z,25.50
2022-08-10T01:20:30.166Z,25.50
2022-08-10T01:26:10.691Z,25.40
2022-08-10T01:31:22.592Z,25.50
2022-08-10T01:36:32.327Z,25.40
2022-08-10T01:41:45.918Z,25.40
2022-08-10T01:46:57.463Z,25.40
2022-08-10T01:52:02.063Z,25.40
2022-08-10T01:57:06.100Z,25.40
2022-08-10T02:02:13.385Z,25.40
2022-08-10T02:07:21.191Z,25.40
2022-08-10T02:12:29.632Z,25.30
2022-08-10T02:17:59.357Z,25.30
2022-08-10T02:23:05.802Z,25.30
2022-08-10T02:28:09.703Z,25.30
2022-08-10T02:33:17.166Z,25.30
2022-08-10T02:38:57.607Z,25.30
2022-08-10T02:45:27.060Z,25.20
2022-08-10T02:49:25.977Z,25.20
2022-08-10T02:54:33.674Z,25.20
2022-08-10T02:59:43.203Z,25.20
2022-08-10T03:04:54.560Z,25.20
2022-08-10T03:10:04.585Z,25.20
2022-08-10T03:15:19.609Z,25.20
2022-08-10T03:20:38.312Z,25.20
2022-08-10T03:25:52.589Z,25.20
2022-08-10T03:30:58.148Z,25.10
2022-08-10T03:36:43.620Z,25.20
2022-08-10T03:41:35.615Z,25.20
2022-08-10T03:46:42.688Z,25.20
2022-08-10T03:51:49.363Z,25.10
2022-08-10T03:56:52.592Z,25.10
2022-08-10T04:02:47.141Z,25.20
2022-08-10T04:07:20.941Z,25.10
2022-08-10T04:12:24.430Z,25.10
2022-08-10T04:18:01.207Z,25.10
2022-08-10T04:22:54.625Z,25.10
2022-08-10T04:27:58.974Z,25.10
2022-08-10T04:33:03.823Z,25.10
2022-08-10T04:38:08.902Z,25.10
2022-08-10T04:43:13.329Z,25.10
2022-08-10T04:48:41.350Z,25.10
2022-08-10T04:54:05.317Z,25.30
2022-08-10T04:59:05.155Z,25.40
2022-08-10T05:04:34.517Z,25.50
2022-08-10T05:09:33.803Z,25.40
2022-08-10T05:14:56.807Z,25.50
2022-08-10T05:20:03.647Z,25.50
2022-08-10T05:25:12.021Z,25.60
2022-08-10T05:30:17.155Z,25.70
2022-08-10T05:35:20.252Z,25.80
2022-08-10T05:40:25.439Z,25.90
2022-08-10T05:45:29.576Z,25.90
2022-08-10T05:50:34.682Z,25.90
2022-08-10T05:55:39.184Z,26.10
2022-08-10T06:00:49.854Z,26.20
2022-08-10T06:05:56.221Z,26.30
2022-08-10T06:12:27.436Z,26.50
2022-08-10T06:16:27.513Z,26.60
2022-08-10T06:21:31.083Z,26.70
2022-08-10T06:26:35.577Z,26.50
2022-08-10T06:31:47.812Z,26.20
2022-08-10T06:36:54.223Z,25.90
2022-08-10T06:42:16.328Z,25.70
2022-08-10T06:47:24.488Z,25.70
2022-08-10T06:52:30.090Z,25.80
2022-08-10T06:57:37.235Z,25.70
2022-08-10T07:02:45.927Z,25.50
2022-08-10T07:07:51.223Z,25.50
2022-08-10T07:12:58.827Z,25.40
2022-08-10T07:18:04.052Z,25.40
2022-08-10T07:23:58.184Z,25.50
2022-08-10T07:28:34.854Z,25.40
2022-08-10T07:33:39.615Z,25.40
2022-08-10T07:38:44.456Z,25.50
2022-08-10T07:43:50.791Z,25.50
2022-08-10T07:49:00.716Z,25.50
2022-08-10T07:54:08.631Z,25.60
2022-08-10T07:59:17.239Z,25.60
2022-08-10T08:04:22.943Z,25.60
2022-08-10T08:09:27.970Z,25.60
2022-08-10T08:14:34.078Z,25.60
2022-08-10T08:19:45.925Z,25.70
2022-08-10T08:24:54.041Z,25.60
2022-08-10T08:29:59.183Z,25.60
2022-08-10T08:35:06.281Z,25.70
2022-08-10T08:40:12.868Z,25.70
2022-08-10T08:45:25.915Z,25.80
2022-08-10T08:50:45.983Z,25.80
2022-08-10T08:56:03.721Z,25.90
2022-08-10T09:01:23.628Z,25.90
2022-08-10T09:07:07.337Z,26.00
2022-08-10T09:12:42.042Z,26.00
2022-08-10T09:17:56.204Z,26.10
2022-08-10T09:23:04.477Z,26.00
2022-08-10T09:28:09.934Z,25.90
2022-08-10T09:36:26.171Z,26.00
2022-08-10T09:38:50.146Z,26.00
2022-08-10T09:44:01.509Z,26.00
2022-08-10T09:49:17.559Z,26.00
2022-08-10T09:54:43.790Z,26.10
2022-08-10T10:00:01.672Z,26.10
2022-08-10T10:05:16.699Z,26.20
2022-08-10T10:10:25.521Z,26.20
2022-08-10T10:15:36.199Z,26.30
2022-08-10T10:20:46.006Z,26.30
2022-08-10T10:25:59.358Z,26.30
2022-08-10T10:31:16.596Z,26.30
2022-08-10T10:36:23.182Z,26.40
2022-08-10T10:42:04.026Z,26.50
2022-08-10T10:47:12.942Z,26.50
2022-08-10T10:52:28.898Z,26.50
2022-08-10T10:57:58.734Z,26.40
2022-08-10T11:03:27.826Z,26.50
2022-08-10T11:08:37.595Z,26.50
2022-08-10T11:14:25.316Z,26.50
2022-08-10T11:19:19.676Z,26.60
2022-08-10T11:24:47.007Z,26.70
2022-08-10T11:30:01.645Z,26.70
2022-08-10T11:35:12.888Z,26.70
2022-08-10T11:40:22.886Z,26.80
2022-08-10T11:45:31.370Z,26.80
2022-08-10T11:50:39.168Z,26.80
2022-08-10T11:55:49.434Z,26.90
2022-08-10T12:00:55.548Z,26.80
2022-08-10T12:05:59.881Z,26.90
2022-08-10T12:11:04.700Z,26.90
2022-08-10T12:16:10.782Z,26.90
2022-08-10T12:21:22.210Z,27.00
2022-08-10T12:26:33.644Z,26.90
2022-08-10T12:31:41.006Z,27.00
2022-08-10T12:36:49.115Z,27.10
2022-08-10T12:42:00.440Z,27.10
2022-08-10T12:47:14.502Z,27.10
2022-08-10T12:52:20.924Z,27.00
2022-08-10T12:57:26.893Z,27.10
2022-08-10T13:02:32.753Z,27.30
2022-08-10T13:08:25.435Z,27.30
2022-08-10T13:13:03.902Z,27.30
2022-08-10T13:18:18.690Z,27.30
2022-08-10T13:23:26.782Z,27.30
2022-08-10T13:28:40.145Z,27.40
2022-08-10T13:34:40.733Z,27.30
2022-08-10T13:39:14.890Z,27.40
2022-08-10T13:44:31.034Z,27.50
2022-08-10T13:49:45.809Z,27.40
2022-08-10T13:54:50.239Z,27.50
2022-08-10T14:00:36.105Z,27.50
2022-08-10T14:05:28.829Z,27.50
2022-08-10T14:11:09.843Z,27.50
2022-08-10T14:16:07.049Z,27.50
2022-08-10T14:21:10.370Z,27.50
2022-08-10T14:26:16.348Z,27.50
2022-08-10T14:31:25.077Z,27.60
2022-08-10T14:36:37.799Z,27.60
2022-08-10T14:42:02.579Z,27.60
2022-08-10T14:47:53.830Z,27.70
2022-08-10T14:52:32.054Z,27.70
2022-08-10T14:58:16.955Z,27.70
2022-08-10T15:03:11.269Z,27.70
2022-08-10T15:08:37.150Z,27.80
2022-08-10T15:14:33.993Z,27.70
2022-08-10T15:19:34.269Z,27.70
2022-08-10T15:25:06.555Z,27.70
2022-08-10T15:30:29.481Z,27.70
2022-08-10T15:36:07.143Z,27.70
2022-08-10T15:41:13.232Z,27.70
2022-08-10T15:46:29.661Z,27.80
2022-08-10T15:51:54.025Z,27.80
2022-08-10T15:57:04.429Z,27.80
2022-08-10T16:02:16.680Z,27.70
2022-08-10T16:07:45.464Z,27.70
2022-08-10T16:12:59.921Z,27.80
2022-08-10T16:18:11.231Z,27.80
2022-08-10T16:23:19.801Z,27.70
2022-08-10T16:28:30.856Z,27.70
2022-08-10T16:33:53.498Z,27.70
2022-08-10T16:38:59.958Z,27.70
2022-08-10T16:44:05.031Z,27.80
2022-08-10T16:49:10.611Z,27.60
2022-08-10T16:54:17.899Z,27.70
2022-08-10T16:59:24.828Z,27.50
2022-08-10T17:04:30.168Z,27.50
2022-08-10T17:09:38.538Z,27.50
2022-08-10T17:14:43.527Z,27.50
2022-08-10T17:19:47.435Z,27.40
2022-08-10T17:24:56.751Z,27.40
2022-08-10T17:30:04.407Z,27.40
2022-08-10T17:35:16.831Z,27.40
2022-08-10T17:40:26.158Z,27.30
2022-08-10T17:45:48.001Z,27.30
2022-08-10T17:50:54.147Z,27.20
2022-08-10T17:56:00.779Z,27.20
2022-08-10T18:01:38.746Z,27.10
2022-08-10T18:06:31.156Z,27.20
2022-08-10T18:11:41.874Z,27.00
2022-08-10T18:16:46.675Z,26.80
2022-08-10T18:21:51.480Z,26.80
2022-08-10T18:26:56.530Z,26.70
2022-08-10T18:32:03.655Z,26.70
2022-08-10T18:37:09.939Z,26.60
2022-08-10T18:42:17.980Z,26.50
2022-08-10T18:47:29.984Z,26.40
2022-08-10T18:52:34.809Z,26.30
2022-08-10T18:57:53.935Z,26.30
2022-08-10T19:03:32.653Z,26.10
2022-08-10T19:08:49.213Z,26.10
2022-08-10T19:14:01.519Z,26.00
2022-08-10T19:19:22.407Z,26.00
2022-08-10T19:24:36.064Z,25.90
2022-08-10T19:30:09.404Z,25.80
2022-08-10T19:35:17.575Z,25.70
2022-08-10T19:40:43.547Z,25.60
2022-08-10T19:46:02.926Z,25.50
2022-08-10T19:51:14.268Z,25.50
2022-08-10T19:56:34.249Z,25.50
2022-08-10T20:01:55.309Z,25.40
2022-08-10T20:07:10.156Z,25.40
2022-08-10T20:12:20.032Z,25.40
2022-08-10T20:17:51.414Z,25.30
2022-08-10T20:23:02.760Z,25.20
2022-08-10T20:28:16.229Z,25.10
2022-08-10T20:33:28.363Z,25.10
2022-08-10T20:38:38.235Z,25.00
2022-08-10T20:43:52.823Z,25.00
2022-08-10T20:49:02.528Z,25.00
2022-08-10T20:54:09.827Z,24.90
2022-08-10T20:59:33.476Z,25.10
2022-08-10T21:04:52.944Z,25.10
2022-08-10T21:10:04.659Z,25.10
2022-08-10T21:15:20.298Z,25.10
2022-08-10T21:20:47.534Z,25.10
2022-08-10T21:26:07.448Z,25.10
2022-08-10T21:31:22.886Z,25.10
2022-08-10T21:36:32.071Z,25.00
2022-08-10T21:42:01.129Z,24.80
2022-08-10T21:47:43.338Z,24.80
2022-08-10T21:53:43.917Z,24.80
2022-08-10T21:59:10.873Z,24.80
2022-08-10T22:04:32.645Z,24.80
2022-08-10T22:10:01.624Z,25.00
2022-08-10T22:16:03.527Z,25.10
2022-08-10T22:21:20.050Z,25.20
2022-08-10T22:27:06.063Z,25.20
2022-08-10T22:32:35.415Z,25.30
2022-08-10T22:38:11.254Z,25.30
2022-08-10T22:43:41.974Z,25.30
2022-08-10T22:49:00.508Z,25.40
2022-08-10T22:54:31.025Z,25.40
2022-08-10T22:59:36.046Z,25.50
2022-08-10T23:04:45.753Z,25.50
2022-08-10T23:09:57.894Z,25.50
2022-08-10T23:15:21.895Z,25.50
2022-08-10T23:20:26.490Z,25.50
2022-08-10T23:25:32.898Z,25.50
2022-08-10T23:30:39.140Z,25.60
2022-08-10T23:36:27.257Z,25.60
2022-08-10T23:41:14.663Z,25.60
2022-08-10T23:46:23.816Z,25.60
2022-08-10T23:51:54.611Z,25.60
2022-08-10T23:57:01.043Z,25.60
